• Join FlightAware (Why Join?)
  • Login
  • US Flag 
05:28AM EST


 

Airport Tracker/Info


-or-


 

Live Flight TrackerFlight Track Log ✈ N618JB ✈ 04-Apr-2013 ✈ KEWR - KRSW

Flight Track Log - Related Links

Times and Time Zones

All times are in EDT time to prevent confusion due to time zone crossing. See the N618JB flight status page for this flight to view local times or setup timezone preferences in your user account.

Time Position Orientation Groundspeed Altitude Reporting Facility
EDT Latitude Longitude Course Direction KTS MPH feet Rate Location/Type
08:31AM 40.6667 -74.1833 246° West 171 197 1,500  Level New York TRACON
08:32AM 40.6167 -74.2167 207° Southwest 207 238 2,600 1,980 Climbing New York TRACON
08:33AM 40.6000 -74.3000 255° West 264 304 5,400 3,120 Climbing New York TRACON
08:34AM 40.5675 -74.5271 244° Southwest  Level FlightAware Approximate
08:34AM 40.6000 -74.3833 270° West 260 299 8,600  Level New York TRACON
08:35AM 40.5214 -74.6536 244° Southwest  Level FlightAware Approximate
08:35AM 40.5833 -74.4833 258° West 287 330 11,000  Level New York TRACON
08:36AM 40.4783 -74.7818 246° West  Level FlightAware Approximate
08:37AM 40.5331 -74.6594 249° West 330 380 13,800  Level New York Center
08:38AM 40.4872 -74.7797 243° Southwest 358 412 16,300 2,160 Climbing New York Center
08:39AM 40.4667 -74.8958 257° West 368 423 18,100 1,860 Climbing New York Center
08:40AM 40.4325 -75.0328 252° West 368 423 20,100 1,860 Climbing New York Center
08:41AM 40.4047 -75.1647 255° West 368 423 21,900 1,740 Climbing New York Center
08:42AM 40.3747 -75.2961 253° West 376 433 23,600 1,560 Climbing New York Center
08:43AM 40.3058 -75.4086 231° Southwest 376 433 25,100 1,380 Climbing New York Center
08:44AM 40.2286 -75.5150 226° Southwest 387 445 26,500 1,320 Climbing New York Center
08:45AM 40.1492 -75.6236 226° Southwest 408 470 27,800 1,320 Climbing New York Center
08:46AM 40.0819 -75.7356 232° Southwest 413 475 29,100 1,560 Climbing New York Center
08:47AM 40.0144 -75.8500 232° Southwest 413 475 31,000 1,500 Climbing New York Center
08:48AM 39.9492 -75.9619 233° Southwest 402 463 32,200 1,200 Climbing New York Center
08:49AM 39.8864 -76.0600 230° Southwest 402 463 33,400 1,620 Climbing New York Center
08:50AM 39.8275 -76.1636 234° Southwest 392 451 35,400 1,140 Climbing New York Center
08:51AM 39.7525 -76.2525 222° Southwest 373 429 35,700 240 Climbing New York Center
08:52AM 39.6756 -76.3381 221° Southwest 368 423 36,000 180 Climbing New York Center
08:52AM 39.6256 -76.3889 218° Southwest 368 423 36,000  Level Washington Center
08:53AM 39.5561 -76.4717 223° Southwest 368 423 36,000  Level Washington Center
08:54AM 39.4764 -76.5594 220° Southwest 373 429 36,000  Level Washington Center
08:55AM 39.3964 -76.6497 221° Southwest 378 435 36,000  Level Washington Center
08:56AM 39.3144 -76.7369 219° Southwest 378 435 36,000  Level Washington Center
08:57AM 39.2383 -76.8269 222° Southwest 378 435 36,000  Level Washington Center
08:58AM 39.1478 -76.9272 221° Southwest 388 447 36,000  Level Washington Center
08:59AM 39.0656 -77.0086 218° Southwest 383 441 36,000  Level Washington Center
09:00AM 38.9872 -77.0978 222° Southwest 383 441 36,000  Level Washington Center
09:01AM 38.9092 -77.1894 222° Southwest 383 441 36,000  Level Washington Center
09:02AM 38.8286 -77.2731 219° Southwest 383 441 36,000  Level Washington Center
09:03AM 38.7503 -77.3619 222° Southwest 383 441 36,000  Level Washington Center
09:04AM 38.6697 -77.4503 221° Southwest 383 441 36,100  Climbing Washington Center
09:05AM 38.5892 -77.5333 219° Southwest 389 448 36,000 -60 Descending Washington Center
09:06AM 38.5211 -77.6139 223° Southwest 384 442 36,000  Level Washington Center
09:07AM 38.4342 -77.7042 219° Southwest 379 436 36,000  Level Washington Center
09:08AM 38.3597 -77.7814 219° Southwest 379 436 36,000  Level Washington Center
09:09AM 38.2744 -77.8769 221° Southwest 379 436 36,000  Level Washington Center
09:10AM 38.1936 -77.9589 219° Southwest 379 436 36,000  Level Washington Center
09:11AM 38.1147 -78.0461 221° Southwest 385 443 36,000  Level Washington Center
09:12AM 38.0339 -78.1306 219° Southwest 385 443 36,000  Level Washington Center
09:13AM 37.9633 -78.2072 221° Southwest 377 434 36,000  Level Washington Center
09:14AM 37.8717 -78.2986 218° Southwest 377 434 36,000  Level Washington Center
09:15AM 37.7950 -78.3642 214° Southwest 383 441 36,000  Level Washington Center
09:16AM 37.7011 -78.4553 218° Southwest 383 441 36,000  Level Washington Center
09:17AM 37.6158 -78.5333 216° Southwest 383 441 36,000  Level Washington Center
09:18AM 37.5303 -78.6139 217° Southwest 383 441 36,000  Level Washington Center
09:19AM 37.4450 -78.6942 217° Southwest 383 441 36,000  Level Washington Center
09:20AM 37.3594 -78.7744 217° Southwest 383 441 36,000  Level Washington Center
09:21AM 37.2739 -78.8517 216° Southwest 383 441 36,000  Level Washington Center
09:22AM 37.1947 -78.9239 216° Southwest 388 447 36,000  Level Washington Center
09:23AM 37.1089 -79.0061 217° Southwest 388 447 36,000  Level Washington Center
09:24AM 37.0208 -79.0881 217° Southwest 388 447 36,000  Level Washington Center
09:25AM 36.9331 -79.1672 216° Southwest 393 452 36,000  Level Washington Center
09:26AM 36.8472 -79.2464 216° Southwest 393 452 36,000  Level Washington Center
09:27AM 36.7614 -79.3278 217° Southwest 393 452 36,000  Level Washington Center
09:29AM 36.5747 -79.4942 216° Southwest 393 452 36,000  Level Atlanta Center
09:30AM 36.4900 -79.5714 216° Southwest 393 452 36,000  Level Atlanta Center
09:31AM 36.4114 -79.6428 216° Southwest 393 452 36,000  Level Atlanta Center
09:32AM 36.3264 -79.7197 216° Southwest 393 452 36,000  Level Atlanta Center
09:33AM 36.2414 -79.7964 216° Southwest 393 452 36,000  Level Atlanta Center
09:34AM 36.1586 -79.8700 216° Southwest 393 452 36,000  Level Atlanta Center
09:35AM 36.0736 -79.9464 216° Southwest 388 447 36,000  Level Atlanta Center
09:36AM 35.9672 -80.0108 206° Southwest 388 447 36,000  Level Atlanta Center
09:37AM 35.8747 -80.0589 203° Southwest 382 440 36,000  Level Atlanta Center
09:38AM 35.7764 -80.1097 203° Southwest 382 440 36,000  Level Atlanta Center
09:39AM 35.6797 -80.1578 202° Southwest 382 440 36,100  Climbing Atlanta Center
09:40AM 35.5894 -80.2056 203° Southwest 371 427 36,000 -60 Descending Atlanta Center
09:41AM 35.5011 -80.2506 203° Southwest 354 407 36,000  Level Atlanta Center
09:42AM 35.4175 -80.3078 209° Southwest 348 400 36,000  Level Atlanta Center
09:43AM 35.3383 -80.3803 217° Southwest 353 406 36,000 360 Level Atlanta Center
09:44AM 35.2589 -80.4472 215° Southwest 359 413 36,800 660 Climbing Atlanta Center
09:45AM 35.1708 -80.5019 207° Southwest 354 407 37,400 240 Climbing Atlanta Center
09:48AM 34.8594 -80.6486 201° Southwest 364 419 38,000 120 Climbing Jacksonville Center
09:49AM 34.7664 -80.6914 201° Southwest 349 402 38,000  Level Jacksonville Center
09:50AM 34.6733 -80.7392 203° Southwest 360 414 38,000  Level Jacksonville Center
09:51AM 34.5822 -80.7767 199° South 360 414 38,000  Level Jacksonville Center
09:52AM 34.4892 -80.8269 204° Southwest 366 421 38,000  Level Jacksonville Center
09:53AM 34.3961 -80.8669 200° South 366 421 38,000  Level Jacksonville Center
09:54AM 34.3069 -80.9042 199° South 356 410 38,000  Level Jacksonville Center
09:55AM 34.2158 -80.9564 205° Southwest 356 410 38,000  Level Jacksonville Center
09:56AM 34.1228 -80.9986 201° Southwest 356 410 38,000  Level Jacksonville Center
09:57AM 34.0272 -81.0383 199° South 356 410 38,000  Level Jacksonville Center
09:58AM 33.9361 -81.0803 201° Southwest 361 415 38,000  Level Jacksonville Center
09:59AM 33.8386 -81.1247 201° Southwest 361 415 38,000 -60 Level Jacksonville Center
10:00AM 33.7475 -81.1717 203° Southwest 367 422 37,900 -60 Descending Jacksonville Center
10:01AM 33.6519 -81.2133 200° South 367 422 37,900  Level Jacksonville Center
10:02AM 33.5608 -81.2575 202° Southwest 367 422 38,000  Climbing Jacksonville Center
10:03AM 33.4633 -81.3017 201° Southwest 367 422 38,000  Level Jacksonville Center
10:04AM 33.3658 -81.3481 202° Southwest 372 428 38,000  Level Jacksonville Center
10:05AM 33.2722 -81.3844 198° South 366 421 38,000 -60 Level Jacksonville Center
10:06AM 33.1767 -81.4308 202° Southwest 366 421 37,900 -60 Descending Jacksonville Center
10:07AM 33.0856 -81.4744 202° Southwest 366 421 37,900  Level Jacksonville Center
10:08AM 32.9919 -81.5156 200° South 366 421 37,900  Level Jacksonville Center
10:09AM 32.8964 -81.5592 201° Southwest 366 421 38,000  Climbing Jacksonville Center
10:10AM 32.8050 -81.6000 201° Southwest 366 421 38,000  Level Jacksonville Center
10:11AM 32.7094 -81.6408 200° South 366 421 38,000  Level Jacksonville Center
10:12AM 32.6181 -81.6842 202° Southwest 366 421 38,000  Level Jacksonville Center
10:13AM 32.5328 -81.7222 201° Southwest 366 421 38,000  Level Jacksonville Center
10:14AM 32.4267 -81.7703 201° Southwest 371 427 38,100  Climbing Jacksonville Center
10:15AM 32.3311 -81.8108 200° South 371 427 38,000  Descending Jacksonville Center
10:16AM 32.2436 -81.8536 202° Southwest 371 427 38,100  Climbing Jacksonville Center
10:17AM 32.1397 -81.8964 199° South 366 421 38,000 -60 Descending Jacksonville Center
10:18AM 32.0544 -81.9342 201° Southwest 366 421 38,000  Level Jacksonville Center
10:19AM 31.9461 -81.9694 195° South 366 421 38,000  Level Jacksonville Center
10:20AM 31.8417 -81.9803 185° South 376 433 38,000  Level Jacksonville Center
10:21AM 31.7458 -81.9911 185° South 386 444 38,000  Level Jacksonville Center
10:22AM 31.6247 -81.9997 183° South 391 450 38,000  Level Jacksonville Center
10:23AM 31.5183 -82.0078 184° South 391 450 38,000  Level Jacksonville Center
10:24AM 31.4222 -82.0211 187° South 385 443 38,000  Level Jacksonville Center
10:25AM 31.3200 -82.0292 184° South 385 443 38,000  Level Jacksonville Center
10:26AM 31.2158 -82.0422 186° South 385 443 38,000 -60 Level Jacksonville Center
10:27AM 31.1136 -82.0506 184° South 385 443 37,900 -60 Descending Jacksonville Center
10:28AM 31.0133 -82.0611 185° South 380 437 37,900  Level Jacksonville Center
10:29AM 30.9089 -82.0669 183° South 380 437 38,000  Climbing Jacksonville Center
10:30AM 30.8047 -82.0775 185° South 375 432 38,000  Level Jacksonville Center
10:31AM 30.7044 -82.0881 185° South 370 426 38,000  Level Jacksonville Center
10:32AM 30.6022 -82.0961 184° South 370 426 38,000  Level Jacksonville Center
10:33AM 30.4978 -82.1019 183° South 370 426 38,000  Level Jacksonville Center
10:34AM 30.3936 -82.1100 184° South 370 426 38,000  Level Jacksonville Center
10:35AM 30.2914 -82.1203 185° South 370 426 38,000  Level Jacksonville Center
10:36AM 30.1850 -82.1283 184° South 370 426 38,000  Level Jacksonville Center
10:37AM 30.0783 -82.1100 172° South 375 432 38,000 -300 Level Jacksonville Center
10:38AM 29.9569 -82.0894 172° South 388 447 37,500 -780 Descending Jacksonville Center
10:39AM 29.8483 -82.0664 170° South 393 452 36,500 -900 Descending Jacksonville Center
10:40AM 29.7586 -82.0503 171° South 400 460 35,700 -840 Descending Jacksonville Center
10:41AM 29.6247 -82.0231 170° South 405 466 34,900 -840 Descending Jacksonville Center
10:42AM 29.5139 -82.0000 170° South 410 472 34,100 -1,920 Descending Jacksonville Center
10:43AM 29.3989 -81.9772 170° South 410 472 31,100 -2,700 Descending Jacksonville Center
10:44AM 29.2839 -81.9544 170° South 415 478 28,800 -2,040 Descending Jacksonville Center
10:45AM 29.1814 -81.9317 169° South 415 478 27,100 -900 Descending Jacksonville Center
10:46AM 29.0772 -81.9397 184° South 408 470 27,000 -60 Descending Jacksonville Center
10:47AM 28.9897 -81.9786 201° Southwest 352 405 27,000  Level Jacksonville Center
10:48AM 28.8919 -82.0200 200° South 352 405 27,000  Level Jacksonville Center
10:49AM 28.7917 -82.0067 173° South 346 398 27,000  Level Jacksonville Center
10:50AM 28.7078 -81.9339 143° Southeast 344 396 27,000  Level Jacksonville Center
10:52AM 28.5592 -81.8194 146° Southeast 413 475 27,000  Level Miami Center
10:53AM 28.4603 -81.7819 162° South 389 448 27,000 -120 Level Miami Center
10:54AM 28.3633 -81.7542 166° South 371 427 26,800 -900 Descending Miami Center
10:55AM 28.2639 -81.7286 167° South 371 427 25,200 -1,440 Descending Miami Center
10:56AM 28.1711 -81.7011 165° South 361 415 24,000 -600 Descending Miami Center
10:57AM 28.0778 -81.6781 168° South 351 404 24,000  Level Miami Center
10:58AM 27.9906 -81.6722 177° South 351 404 24,000 -240 Level Miami Center
10:59AM 27.8972 -81.6542 170° South 346 398 23,600 -1,800 Descending Miami Center
11:00AM 27.7894 -81.6308 169° South 351 404 20,400 -2,640 Descending Miami Center
11:01AM 27.6878 -81.6125 171° South 370 426 18,400 -1,740 Descending Miami Center
11:02AM 27.5883 -81.5942 171° South 370 426 17,000 -720 Descending Miami Center
11:03AM 27.4867 -81.5736 170° South 370 426 17,000 -300 Level Miami Center
11:04AM 27.3892 -81.5556 171° South 365 420 16,400 -1,020 Descending Miami Center
11:05AM 27.3019 -81.5406 171° South 349 402 15,000 -1,920 Descending Miami Center
11:06AM 27.2169 -81.5253 171° South 327 376 12,600 -1,860 Descending Miami Center
11:07AM 27.1339 -81.5056 168° South 315 362 11,300 -1,320 Descending Miami Center
11:08AM 27.0572 -81.4908 170° South 301 346 10,000 -660 Descending Miami Center
11:09AM 26.9806 -81.4692 166° South 286 329 10,000 -540 Level Miami Center
11:10AM 26.9089 -81.4314 155° Southeast 280 322 9,000 -1,380 Descending Miami Center
11:11AM 26.8411 -81.3961 155° Southeast 285 328 7,300 -1,920 Descending Miami Center
11:12AM 26.7747 -81.3775 166° South 275 316 5,200 -1,200 Descending Miami Center
11:13AM 26.7156 -81.4031 201° Southwest 225 259 5,000 -900 Descending Miami Center
11:14AM 26.7008 -81.4675 256° West 186 214 3,400 -1,020 Descending Miami Center
11:15AM 26.6886 -81.5297 258° West 200 230 3,000 -420 Descending Miami Center
11:17AM 26.5982 -81.6636 193° South  Level Estimated
11:24AM 26.5333 -81.7500 318° Northwest  Level FlightAware Approximate
11:25AM 26.5362 -81.7552 318° Northwest  Level Estimated
11:26AM 26.5333 -81.7500 318° Northwest  Level FlightAware Approximate
11:27AM 26.5362 -81.7552 318° Northwest  Level Estimated
11:28AM 26.5333 -81.7500 318° Northwest  Level FlightAware Approximate
11:29AM 26.5362 -81.7552 318° Northwest  Level Estimated